Details From LIRF - Roma Fiumicino Leonardo Da Vinci
To GCGM - La Gomera
Flight Number -
Tags Generated
Created
Modified
Stats Distance 1,659 nm / 3,073 km
Max Altitude 0 ft / 0 m
Waypoints 8
Social Downloads 1
Likes 0
Share VATSIM

Download

Looking for another format? Having issues loading an existing format? Contact us
Advertisement - Login to hide

Notes

Generated

Route

LIRF DORAD OLMIR GATAS BARIS 3310N LGM GCGM

ID Type Via Altitude Latitude Longitude Leg Dist Tot Dist Heading (true) Name
O LIRF APT - 0 ft / 0 m 41.79932˚ 12.23212˚ - 0 nm - -
DORAD FIX - 0 ft / 0 m 40.47833˚ 7.38833˚ 232 nm 232 nm 252° / 249° -
OLMIR FIX - 0 ft / 0 m 38.53111˚ 2.51806˚ 254 nm 487 nm 244° / 241° -
GATAS FIX - 0 ft / 0 m 36.69329˚ -1.88856˚ 236 nm 723 nm 244° / 241° -
BARIS FIX - 0 ft / 0 m 34.90306˚ -5.93056˚ 224 nm 948 nm 243° / 240° -
3310N FIX - 0 ft / 0 m 33.00000˚ -10.00000˚ 232 nm 1180 nm 242° / 239° -
LGM VOR - 0 ft / 0 m 28.02874˚ -17.21487˚ 477 nm 1658 nm 233° / 230° LA GOMERA VOR-DME
O GCGM APT - 0 ft / 0 m 28.02859˚ -17.22214˚ 0 nm 1659 nm 269° / 269° -

Altitude Profile

Advertisement - Login to hide

Weather


0- 5 10 15 20 25 30 35+ Temperature / ° C

Clouds and Precipitation
Forecast for 2018-05-25 12:00 UTC. Updated 4 hours ago

Ground ~20,000 ft ~40,000 ft Winds

LIRF

Details ICAO LIRF (FCO)
Name Roma Fiumicino Leonardo Da Vinci
Region Italy
Timezone Europe/Rome (UTC+2.0)
Stats Elevation 15 ft / 5 m (AMSL)
Location 41.810809° 12.250897°
Runways 3
Magnetic Variation 3.042° E

METAR

LIRF 251420Z 27010KT CAVOK 23/17 Q1015 NOSIG

Decode

TAF

TAF LIRF 251100Z 2512/2618 28013KT CAVOK BECMG 2518/2520 VRB04KT TEMPO 2601/2605 3000 BR BECMG 2608/2610 27012KT

Decode

Departure Runways

ID Width Length Bearing (true) Bearing (mag) Surface Threshold Offset Overrun Length
07 148 ft / 45 m 10,835 ft / 3,302 m 69.67° 66.63° Asphalt 1,365 ft / 416 m 0 ft / 0 m
16L 197 ft / 60 m 12,832 ft / 3,911 m 162.67° 159.63° Asphalt 0 ft / 0 m 0 ft / 0 m
16R 197 ft / 60 m 12,822 ft / 3,908 m 162.66° 159.62° Asphalt 0 ft / 0 m 0 ft / 0 m
25 148 ft / 45 m 10,835 ft / 3,302 m 249.70° 246.66° Asphalt 0 ft / 0 m 0 ft / 0 m
34L 197 ft / 60 m 12,822 ft / 3,908 m 342.67° 339.63° Asphalt 1,053 ft / 321 m 0 ft / 0 m
34R 197 ft / 60 m 12,832 ft / 3,911 m 342.68° 339.64° Asphalt 0 ft / 0 m 0 ft / 0 m

GCGM

Details ICAO GCGM (GMZ)
Name La Gomera
Region Canary Islands
Timezone Atlantic/Canary (UTC+1.0)
Stats Elevation 715 ft / 218 m (AMSL)
Location 28.029627° -17.214603°
Runways 1
Magnetic Variation 5.307° W

METAR

GCGM 251430Z 22009KT 200V270 9999 FEW035 22/14 Q1018 RMK R09/VRB05KT ARP/VRB07KT

Decode

TAF

TAF GCGM 251400Z 2515/2615 VRB06KT 9999 SCT045 TX23/2614Z TN16/2605Z

Decode

Destination Runways

ID Width Length Bearing (true) Bearing (mag) Surface Threshold Offset Overrun Length
09 98 ft / 30 m 4,914 ft / 1,498 m 81.17° 86.48° Asphalt 0 ft / 0 m 0 ft / 0 m
27 98 ft / 30 m 4,914 ft / 1,498 m 261.18° 266.49° Asphalt 0 ft / 0 m 0 ft / 0 m